createdAt,value
2023-02-14T00:02:48.659Z,102719.97
2023-02-14T00:07:46.138Z,102719.34
2023-02-14T00:12:42.838Z,102712.94
2023-02-14T00:17:39.533Z,102718.88
2023-02-14T00:22:36.404Z,102714.78
2023-02-14T00:27:33.739Z,102714.56
2023-02-14T00:32:31.782Z,102707.84
2023-02-14T00:37:28.458Z,102707.47
2023-02-14T00:42:25.230Z,102691.47
2023-02-14T00:47:22.620Z,102685.00
2023-02-14T00:52:20.146Z,102669.53
2023-02-14T00:57:16.869Z,102652.59
2023-02-14T01:02:17.073Z,102632.44
2023-02-14T01:07:14.945Z,102634.00
2023-02-14T01:12:12.077Z,102638.06
2023-02-14T01:17:13.110Z,102612.44
2023-02-14T01:22:09.663Z,102618.28
2023-02-14T01:27:07.033Z,102618.41
2023-02-14T01:32:03.800Z,102606.38
2023-02-14T01:37:00.652Z,102599.81
2023-02-14T01:41:57.347Z,102590.38
2023-02-14T01:46:56.004Z,102581.72
2023-02-14T01:51:55.892Z,102589.66
2023-02-14T01:56:54.770Z,102576.63
2023-02-14T02:01:53.042Z,102560.31
2023-02-14T02:06:53.103Z,102545.88
2023-02-14T02:11:50.092Z,102576.16
2023-02-14T02:16:55.435Z,102573.09
2023-02-14T02:22:05.019Z,102565.25
2023-02-14T02:27:19.482Z,102556.03
2023-02-14T02:32:37.546Z,102549.00
2023-02-14T02:37:40.625Z,102541.75
2023-02-14T02:42:45.992Z,102521.50
2023-02-14T02:47:49.135Z,102518.81
2023-02-14T02:53:06.101Z,102505.31
2023-02-14T02:58:04.585Z,102503.56
2023-02-14T03:03:19.260Z,102498.84
2023-02-14T03:08:16.649Z,102508.31
2023-02-14T03:13:25.613Z,102495.44
2023-02-14T03:18:50.478Z,102504.16
2023-02-14T03:23:53.036Z,102480.94
2023-02-14T03:28:54.005Z,102481.91
2023-02-14T03:33:54.281Z,102488.59
2023-02-14T03:38:56.811Z,102470.72
2023-02-14T03:43:55.935Z,102471.06
2023-02-14T03:48:53.593Z,102462.34
2023-02-14T03:53:52.916Z,102455.81
2023-02-14T03:58:51.425Z,102460.13
2023-02-14T04:03:48.796Z,102462.66
2023-02-14T04:08:45.526Z,102460.81
2023-02-14T04:13:43.484Z,102477.91
2023-02-14T04:18:59.387Z,102482.56
2023-02-14T04:23:55.931Z,102496.56
2023-02-14T04:28:52.525Z,102479.13
2023-02-14T04:33:50.894Z,102478.88
2023-02-14T04:38:47.588Z,102473.31
2023-02-14T04:43:44.235Z,102468.06
2023-02-14T04:48:40.829Z,102482.19
2023-02-14T04:53:39.800Z,102469.63
2023-02-14T04:58:36.479Z,102458.63
2023-02-14T05:03:33.104Z,102472.06
2023-02-14T05:08:29.906Z,102482.88
2023-02-14T05:13:27.938Z,102488.03
2023-02-14T05:18:24.858Z,102523.97
2023-02-14T05:23:21.714Z,102512.75
2023-02-14T05:28:18.787Z,102520.47
2023-02-14T05:33:16.096Z,102523.84
2023-02-14T05:38:13.252Z,102519.22
2023-02-14T05:43:10.663Z,102516.97
2023-02-14T05:48:07.250Z,102506.34
2023-02-14T05:53:04.856Z,102518.19
2023-02-14T05:58:01.466Z,102523.59
2023-02-14T06:02:58.276Z,102530.28
2023-02-14T06:07:55.007Z,102526.66
2023-02-14T06:12:53.533Z,102533.88
2023-02-14T06:17:53.698Z,102530.44
2023-02-14T06:22:50.925Z,102535.41
2023-02-14T06:27:51.695Z,102536.38
2023-02-14T06:32:49.646Z,102538.38
2023-02-14T06:37:46.308Z,102534.22
2023-02-14T06:42:43.788Z,102543.06
2023-02-14T06:47:40.600Z,102529.59
2023-02-14T06:52:38.716Z,102546.56
2023-02-14T06:57:35.566Z,102551.81
2023-02-14T07:02:32.554Z,102554.81
2023-02-14T07:07:29.661Z,102557.00
2023-02-14T07:12:27.176Z,102557.69
2023-02-14T07:17:24.242Z,102559.59
2023-02-14T07:22:21.093Z,102556.19
2023-02-14T07:27:18.015Z,102559.88
2023-02-14T07:32:41.456Z,102549.19
2023-02-14T07:38:08.345Z,102536.47
2023-02-14T07:43:55.040Z,102532.91
2023-02-14T07:55:04.533Z,102517.03
2023-02-14T08:01:12.125Z,102509.03
2023-02-14T08:05:42.479Z,102517.94
2023-02-14T08:11:16.513Z,102522.31
2023-02-14T08:16:56.246Z,102531.69
2023-02-14T08:22:26.379Z,102513.38
2023-02-14T08:46:51.086Z,102490.72
2023-02-14T08:52:12.553Z,102504.13
2023-02-14T09:03:09.939Z,102502.00
2023-02-14T09:31:55.630Z,102509.22
2023-02-14T09:37:34.584Z,102502.34
2023-02-14T09:42:46.290Z,102522.81
2023-02-14T09:47:48.066Z,102520.16
2023-02-14T09:52:47.173Z,102521.38
2023-02-14T09:57:47.822Z,102516.16
2023-02-14T10:02:57.709Z,102505.75
2023-02-14T10:08:07.423Z,102511.06
2023-02-14T10:13:07.373Z,102504.25
2023-02-14T10:18:10.230Z,102505.22
2023-02-14T10:23:18.243Z,102487.59
2023-02-14T10:28:22.929Z,102482.06
2023-02-14T10:33:24.561Z,102476.06
2023-02-14T10:38:35.444Z,102467.88
2023-02-14T10:43:39.940Z,102452.53
2023-02-14T10:48:43.006Z,102442.09
2023-02-14T10:53:44.514Z,102434.97
2023-02-14T10:58:45.466Z,102435.09
2023-02-14T11:03:49.469Z,102439.69
2023-02-14T11:08:46.557Z,102436.13
2023-02-14T11:13:43.650Z,102428.44
2023-02-14T11:18:41.124Z,102415.59
2023-02-14T11:23:42.465Z,102413.16
2023-02-14T11:28:57.615Z,102413.06
2023-02-14T11:33:54.712Z,102405.25
2023-02-14T11:38:56.128Z,102407.06
2023-02-14T11:44:09.805Z,102403.59
2023-02-14T11:49:22.751Z,102398.47
2023-02-14T11:54:28.295Z,102385.38
2023-02-14T11:59:53.840Z,102387.88
2023-02-14T12:04:53.888Z,102379.28
2023-02-14T12:10:06.858Z,102370.59
2023-02-14T12:15:23.609Z,102366.25
2023-02-14T12:20:35.442Z,102356.69
2023-02-14T12:25:42.979Z,102326.25
2023-02-14T12:30:40.555Z,102337.59
2023-02-14T12:35:44.916Z,102320.16
2023-02-14T12:40:53.615Z,102326.25
2023-02-14T12:46:11.691Z,102316.66
2023-02-14T12:51:11.871Z,102302.72
2023-02-14T12:56:16.246Z,102298.34
2023-02-14T13:01:43.994Z,102291.38
2023-02-14T13:06:43.551Z,102290.53
2023-02-14T13:11:48.725Z,102283.53
2023-02-14T13:17:01.600Z,102266.13
2023-02-14T13:21:59.890Z,102280.94
2023-02-14T13:26:59.546Z,102280.91
2023-02-14T13:31:58.264Z,102286.16
2023-02-14T13:36:56.258Z,102289.66
2023-02-14T13:41:53.225Z,102284.41
2023-02-14T13:46:52.164Z,102294.88
2023-02-14T13:51:50.084Z,102280.06
2023-02-14T13:56:46.954Z,102271.34
2023-02-14T14:01:47.949Z,102267.00
2023-02-14T14:07:05.728Z,102259.16
2023-02-14T14:12:03.340Z,102256.53
2023-02-14T14:17:01.901Z,102259.16
2023-02-14T14:22:02.790Z,102246.97
2023-02-14T14:27:00.596Z,102244.34
2023-02-14T14:32:08.622Z,102241.72
2023-02-14T14:37:06.680Z,102239.13
2023-02-14T14:42:07.724Z,102230.41
2023-02-14T14:47:04.737Z,102231.28
2023-02-14T14:52:09.247Z,102234.78
2023-02-14T14:57:06.805Z,102245.22
2023-02-14T15:02:04.923Z,102240.88
2023-02-14T15:07:16.915Z,102245.22
2023-02-14T15:12:38.044Z,102253.94
2023-02-14T15:17:38.889Z,102242.63
2023-02-14T15:22:40.925Z,102247.81
2023-02-14T15:28:16.345Z,102253.94
2023-02-14T15:33:19.919Z,102267.00
2023-02-14T15:38:17.548Z,102261.75
2023-02-14T15:43:21.641Z,102273.97
2023-02-14T15:48:19.314Z,102260.88
2023-02-14T15:53:27.969Z,102275.72
2023-02-14T15:58:33.129Z,102271.31
2023-02-14T16:03:33.249Z,102272.16
2023-02-14T16:08:32.899Z,102272.16
2023-02-14T16:13:31.923Z,102279.16
2023-02-14T16:18:33.728Z,102282.59
2023-02-14T16:24:00.999Z,102279.94
2023-02-14T16:28:58.749Z,102283.41
2023-02-14T16:33:55.870Z,102285.13
2023-02-14T16:38:52.981Z,102284.22
2023-02-14T16:43:50.209Z,102295.53
2023-02-14T16:48:51.769Z,102301.63
2023-02-14T16:53:49.656Z,102317.28
2023-02-14T16:58:46.932Z,102320.78
2023-02-14T17:03:44.318Z,102330.34
2023-02-14T17:08:41.901Z,102324.16
2023-02-14T17:13:44.998Z,102321.59
2023-02-14T17:18:42.987Z,102325.06
2023-02-14T17:23:40.061Z,102325.94
2023-02-14T17:28:37.308Z,102343.28
2023-02-14T17:33:34.472Z,102338.91
2023-02-14T17:38:34.203Z,102338.91
2023-02-14T17:43:31.183Z,102351.03
2023-02-14T17:48:28.470Z,102356.06
2023-02-14T17:53:25.210Z,102365.56
2023-02-14T17:58:21.845Z,102357.00
2023-02-14T18:03:19.802Z,102354.31
2023-02-14T18:08:17.713Z,102363.84
2023-02-14T18:13:14.428Z,102370.72
2023-02-14T18:18:11.721Z,102373.28
2023-02-14T18:23:09.079Z,102382.88
2023-02-14T18:28:06.502Z,102374.97
2023-02-14T18:33:04.617Z,102373.34
2023-02-14T18:38:03.803Z,102375.19
2023-02-14T18:43:00.703Z,102369.75
2023-02-14T18:47:58.236Z,102373.22
2023-02-14T18:52:55.031Z,102376.59
2023-02-14T18:57:51.769Z,102387.84
2023-02-14T19:02:51.154Z,102391.84
2023-02-14T19:07:53.414Z,102376.66
2023-02-14T19:12:50.208Z,102378.25
2023-02-14T19:17:50.743Z,102385.25
2023-02-14T19:22:48.475Z,102371.56
2023-02-14T19:27:45.924Z,102395.50
2023-02-14T19:32:42.800Z,102399.19
2023-02-14T19:37:39.800Z,102400.91
2023-02-14T19:42:37.352Z,102398.38
2023-02-14T19:47:46.802Z,102399.16
2023-02-14T19:52:44.330Z,102399.97
2023-02-14T19:57:45.229Z,102402.28
2023-02-14T20:02:47.364Z,102411.00
2023-02-14T20:07:44.328Z,102406.84
2023-02-14T20:12:41.757Z,102414.84
2023-02-14T20:17:38.640Z,102424.06
2023-02-14T20:22:35.844Z,102433.47
2023-02-14T20:27:32.487Z,102431.56
2023-02-14T20:32:29.787Z,102438.50
2023-02-14T20:37:26.469Z,102449.88
2023-02-14T20:42:23.398Z,102455.06
2023-02-14T20:47:20.281Z,102458.78
2023-02-14T20:52:18.198Z,102467.72
2023-02-14T20:57:16.208Z,102455.91
2023-02-14T21:02:12.905Z,102469.97
2023-02-14T21:07:10.793Z,102462.88
2023-02-14T21:12:08.251Z,102470.44
2023-02-14T21:17:05.115Z,102467.91
2023-02-14T21:22:01.976Z,102472.38
2023-02-14T21:26:58.805Z,102470.41
2023-02-14T21:31:56.371Z,102492.78
2023-02-14T21:36:55.603Z,102497.00
2023-02-14T21:41:52.275Z,102497.94
2023-02-14T21:46:49.058Z,102513.53
2023-02-14T21:51:47.387Z,102516.78
2023-02-14T21:56:44.370Z,102518.66
2023-02-14T22:01:41.632Z,102521.09
2023-02-14T22:06:39.925Z,102529.03
2023-02-14T22:11:37.413Z,102540.47
2023-02-14T22:16:36.170Z,102533.03
2023-02-14T22:21:33.619Z,102531.88
2023-02-14T22:26:31.178Z,102533.22
2023-02-14T22:31:30.266Z,102538.22
2023-02-14T22:36:27.105Z,102538.22
2023-02-14T22:41:24.569Z,102541.72
2023-02-14T22:46:23.957Z,102536.00
2023-02-14T22:51:22.828Z,102541.94
2023-02-14T22:56:21.512Z,102542.81
2023-02-14T23:01:20.585Z,102531.75
2023-02-14T23:06:17.271Z,102538.78
2023-02-14T23:11:15.857Z,102534.88
2023-02-14T23:16:30.807Z,102531.28
2023-02-14T23:21:46.094Z,102536.31
2023-02-14T23:26:43.584Z,102517.16
2023-02-14T23:31:40.433Z,102541.50
2023-02-14T23:36:37.203Z,102536.56
2023-02-14T23:41:49.362Z,102540.75
2023-02-14T23:46:47.327Z,102535.47
2023-02-14T23:51:45.314Z,102548.47
2023-02-14T23:56:42.800Z,102557.69
